KSLK/SLK METAR and TAF weather

Enter ICAO airport designator
Station Type Date Time Source
KSLK METAR 2019/02/21 15:51 UTC NOAA

KSLK 211551Z AUTO 26011G23KT 240V310 10SM BKN015 BKN022 OVC031 00/M02 A2977 RMK AO2 SLP101 T00001017


Station Type Date Time Source
KSLK Decoded METAR 2019/02/21 15:51 UTC NOAA

ADIRONDACK REGIONAL AIRPORT, NY, United States (KSLK) 44-24N 074-12W 498M
Feb 21, 2019 - 10:51 AM EST / 2019.02.21 1551 UTC
Wind: from the W (260 degrees) at 13 MPH (11 KT) gusting to 26 MPH (23 KT) (direction variable):0
Visibility: 10 mile(s):0
Sky conditions: overcast
Temperature: 32.0 F (0.0 C)
Windchill: 23 F (-5 C):1
Dew Point: 28.9 F (-1.7 C)
Relative Humidity: 88%
Pressure (altimeter): 29.77 in. Hg (1008 hPa)
ob: KSLK 211551Z AUTO 26011G23KT 240V310 10SM BKN015 BKN022 OVC031 00/M02 A2977 RMK AO2 SLP101 T00001017
cycle: 16

Station Type Date Time Source
KSLK TAF 2019/02/21 14:18 UTC NOAA

TAF
AMD KSLK 211416Z 2114/2212 23009KT 3SM -SN BR OVC005
TEMPO 2114/2117 1/2SM -SN FZFG
FM211700 23013G22KT P6SM OVC011
FM212100 25014KT P6SM VCSH OVC015
FM220300 26009KT P6SM VCSH OVC021
FM220500 27008KT P6SM BKN020


Example: see airport list